Nearby METAR Reports

 

KDVT - Phoenix/Deer Vly, Arizona, USA
Distance from station: SSE 14mi, 22km
Updated: 04/21/2018 9:53am
Clear
Clear
 Wind from S
Wind: S 7 mph , 11 km/h
Temperature: 73°F , 23°C
Dew Point: 32°F , 0°C
Humidity: 22%
Barometer: 30.07 inHg , 1018.3 hPa
Clouds: Clear
Visibility: 10 miles , 16 km
2018/04/21 16:53 KDVT 211653Z AUTO 18006KT 10SM CLR 23/00 A3007 RMK AO2 SLP164 T02280000
KSDL - Scottsdale, Arizona, USA
Distance from station: SE 22mi, 35km
Updated: 04/21/2018 9:53am
Clear
Clear
 Wind from varies
Wind: varies 7 mph , 11 km/h
Temperature: 73°F , 23°C
Dew Point: 36°F , 2°C
Humidity: 25%
Barometer: 30.09 inHg , 1019 hPa
Clouds: Clear
Visibility: 10 miles , 16 km
2018/04/21 16:53 KSDL 211653Z VRB06KT 10SM CLR 23/02 A3009 RMK AO2 SLP169 T02330017
 
KGEU - Glendale, Arizona, USA
Distance from station: SSW 25mi, 41km
Updated: 04/21/2018 9:48am
Few Clouds
Few Clouds
 Wind from calm
Wind: Calm
Temperature: 73°F , 23°C
Dew Point: 34°F , 1°C
Humidity: 23%
Barometer: 30.09 inHg , 1019 hPa
Clouds: Few Clouds
Visibility: 10 miles , 16 km
Cloud details: Few Clouds 25000 ft
2018/04/21 16:48 KGEU 211648Z 00000KT 10SM FEW250 23/01 A3009
KLUF - Luke Afb/Glendal, Arizona, USA
Distance from station: SSW 28mi, 45km
Updated: 04/21/2018 9:58am
Clear
Clear
 Wind from S
Wind: S 3 mph , 6 km/h
Temperature: 73°F , 23°C
Dew Point: 34°F , 1°C
Humidity: 23%
Barometer: 30.06 inHg , 1017.9 hPa
Clouds: Clear
Visibility: 10 miles , 16 km
2018/04/21 16:58 KLUF 211658Z AUTO 19003KT 10SM CLR 23/01 A3006 RMK AO2 SLP171 T02320009 $
 
KPHX - Phoenix/Sky Hrbr, Arizona, USA
Distance from station: SSE 31mi, 51km
Updated: 04/21/2018 9:51am
Few Clouds
Few Clouds
 Wind from ESE
Wind: ESE 7 mph , 11 km/h
Temperature: 73°F , 23°C
Dew Point: 34°F , 1°C
Humidity: 23%
Barometer: 30.06 inHg , 1017.9 hPa
Clouds: Few Clouds
Visibility: 10 miles , 16 km
Cloud details: Few Clouds 25000 ft
2018/04/21 16:51 KPHX 211651Z 11006KT 10SM FEW250 23/01 A3006 RMK AO2 SLP167 T02330006
KGYR - Goodyear Municip, Arizona, USA
Distance from station: SSW 34mi, 55km
Updated: 04/21/2018 9:47am
Partly cloudy
Partly cloudy
 Wind from ESE
Wind: ESE 9 mph , 15 km/h
Temperature: 75°F , 24°C
Dew Point: 34°F , 1°C
Humidity: 22%
Barometer: 30.07 inHg , 1018.3 hPa
Clouds: Partly cloudy
Visibility: 10 miles , 16 km
Cloud details: Partly cloudy 25000 ft
2018/04/21 16:47 KGYR 211647Z 12008KT 10SM SCT250 24/01 A3007
 
KFFZ - Mesa/Falcon Fld, Arizona, USA
Distance from station: SE 37mi, 60km
Updated: 04/21/2018 9:58am
Clear
Clear
 Wind from SSE
Wind: SSE 6 mph , 9 km/h
Temperature: 73°F , 23°C
Dew Point: 32°F , 0°C
Humidity: 22%
Barometer: 30.09 inHg , 1019 hPa
Clouds: Clear
Visibility: 30 miles , 48 km
2018/04/21 16:58 KFFZ 211658Z 15005KT 30SM SKC 23/00 A3009
KBXK - Buckeye, Arizona, USA
Distance from station: SW 45mi, 72km
Updated: 04/21/2018 9:55am
Clear
Clear
 Wind from ESE
Wind: ESE 12 mph , 19 km/h
Temperature: 75°F , 24°C
Dew Point: 32°F , 0°C
Humidity: 21%
Barometer: 30.07 inHg , 1018.3 hPa
Clouds: Clear
Visibility: 10 miles , 16 km
2018/04/21 16:55 KBXK 211655Z AUTO 11010KT 10SM CLR 24/00 A3007 RMK AO1
 
KIWA - Chandler/Mesa, Arizona, USA
Distance from station: SE 49mi, 78km
Updated: 04/21/2018 9:47am
Clear
Clear
 Wind from varies
Wind: varies 5 mph , 7 km/h
Temperature: 72°F , 22°C
Dew Point: 30°F , -1°C
Humidity: 22%
Barometer: 30.09 inHg , 1019 hPa
Clouds: Clear
Visibility: 20 miles , 32 km
2018/04/21 16:47 KIWA 211647Z VRB04KT 20SM SKC 22/M01 A3009
KPAN - Payson, Arizona, USA
Distance from station: ENE 53mi, 85km
Updated: 04/21/2018 9:55am
Clear
Clear
 Wind from NNE
Wind: NNE 10 mph , 17 km/h, Gust: 17 mph , 28 km/h
Temperature: 63°F , 17°C
Dew Point: 25°F , -4°C
Humidity: 24%
Barometer: 30.18 inHg , 1022 hPa
Clouds: Clear
Visibility: 10 miles , 16 km
2018/04/21 16:55 KPAN 211655Z AUTO 03009G15KT 360V060 10SM CLR 17/M04 A3018 RMK AO2
 
KPRC - Prescott, Arizona, USA
Distance from station: NNW 56mi, 90km
Updated: 04/21/2018 9:53am

 Wind from N
Wind: N 9 mph , 15 km/h
Temperature: 61°F , 16°C
Dew Point: 27°F , -3°C
Humidity: 27%
Barometer: 30.21 inHg , 1023 hPa
2018/04/21 16:53 KPRC 211653Z AUTO 36008KT 16/M03 A3021 RMK AO2 SLP186 T01611028 TSNO $
KCGZ - Casa Granda, Arizona, USA
Distance from station: SSE 67mi, 109km
Updated: 04/21/2018 9:56am
Clear
Clear
 Wind from calm
Wind: Calm
Temperature: 72°F , 22°C
Dew Point: 28°F , -2°C
Humidity: 20%
Barometer: 30.09 inHg , 1019 hPa
Clouds: Clear
Visibility: 10 miles , 16 km
2018/04/21 16:56 KCGZ 211656Z AUTO 00000KT 10SM CLR 22/M02 A3009 RMK AO2 SLP183 T02221017 $
 
KSEZ - Sedona, Arizona, USA
Distance from station: NNE 70mi, 113km
Updated: 04/21/2018 9:55am
Clear
Clear
 Wind from SSW
Wind: SSW 3 mph , 6 km/h
Temperature: 63°F , 17°C
Dew Point: 28°F , -2°C
Humidity: 27%
Barometer: 30.19 inHg , 1022.4 hPa
Clouds: Clear
Visibility: 10 miles , 16 km
2018/04/21 16:55 KSEZ 211655Z AUTO 21003KT 10SM CLR 17/M02 A3019 RMK AO2
KGXF - Gila Bend (aaf), Arizona, USA
Distance from station: SSW 77mi, 124km
Updated: 04/21/2018 9:58am
Clear
Clear
 Wind from E
Wind: E 3 mph , 6 km/h
Temperature: 77°F , 25°C
Dew Point: 25°F , -4°C
Humidity: 14%
Barometer: 30.05 inHg , 1017.6 hPa
Clouds: Clear
Visibility: 10 miles , 16 km
2018/04/21 16:58 KGXF 211658Z AUTO 09003KT 10SM CLR 25/M04 A3005 RMK AO2 SLP167 T02471037
 
KP08 - Coolidge Muni, Arizona, USA
Distance from station: SSE 77mi, 124km
Updated: 03/05/2018 2:05pm
NOT Current
Clear
Clear
 Wind from varies
Wind: varies 6 mph , 9 km/h, Gust: 14 mph , 22 km/h
Temperature: 68°F , 20°C
Dew Point: 7°F , -14°C
Humidity: 9%
Barometer: 30.07 inHg , 1018.3 hPa
Clouds: Clear
Visibility: 10 miles , 16 km
2018/03/05 21:05 KP08 052105Z AUTO VRB05G12KT 10SM CLR 20/M14 A3007 RMK AO2
KFLG - Flagstaff, Arizona, USA
Distance from station: NNE 91mi, 146km
Updated: 04/21/2018 9:57am
Clear
Clear
 Wind from NE
Wind: NE 5 mph , 7 km/h
Temperature: 55°F , 13°C
Dew Point: 27°F , -3°C
Humidity: 33%
Barometer: 30.24 inHg , 1024 hPa
Clouds: Clear
Visibility: 10 miles , 16 km
2018/04/21 16:57 KFLG 211657Z 05004KT 10SM CLR 13/M03 A3024 RMK AO2 SLP198 T01281028
 
KCMR - Williams Clark, Arizona, USA
Distance from station: N 98mi, 158km
Updated: 04/21/2018 9:55am
Clear
Clear
 Wind from NNE
Wind: NNE 9 mph , 15 km/h, Gust: 16 mph , 26 km/h
Temperature: 55°F , 13°C
Dew Point: 23°F , -5°C
Humidity: 28%
Barometer: 30.24 inHg , 1024 hPa
Clouds: Clear
Visibility: 10 miles , 16 km
2018/04/21 16:55 KCMR 211655Z AUTO 02008G14KT 10SM CLR 13/M05 A3024 RMK AO2